Time;durP1;ratioP1;P1;durP2;ratioP2;P2;SDS_P1;SDS_P2;PMS_P1;PMS_P2;Temp;Humidity;BMP_temperature;BMP_pressure;BME280_temperature;BME280_humidity;BME280_pressure;Samples;Min_cycle;Max_cycle;Signal;HPM_P1;HPM_P2
2023/08/18 00:01:49;;;;;;;18.70;12.40;;;;;;;21.94;100.00;100261.97;5138635;28;20085;-61
2023/08/18 00:04:16;;;;;;;15.27;11.63;;;;;;;21.97;100.00;100265.94;5138965;28;20051;-60
2023/08/18 00:06:42;;;;;;;17.27;13.02;;;;;;;21.97;100.00;100266.72;5138638;28;20047;-60
2023/08/18 00:09:08;;;;;;;18.77;13.65;;;;;;;21.94;100.00;100273.16;5138847;27;20141;-60
2023/08/18 00:11:34;;;;;;;25.70;12.65;;;;;;;21.90;100.00;100280.78;5138698;28;20073;-61
2023/08/18 00:14:00;;;;;;;22.05;13.02;;;;;;;21.85;100.00;100282.00;5138740;28;20175;-61
2023/08/18 00:16:26;;;;;;;19.25;12.75;;;;;;;21.80;100.00;100292.84;5138660;28;20054;-60
2023/08/18 00:18:51;;;;;;;20.00;12.75;;;;;;;21.76;100.00;100290.09;5138539;28;20135;-60
2023/08/18 00:21:18;;;;;;;20.95;12.98;;;;;;;21.71;100.00;100292.53;5138899;28;20047;-57
2023/08/18 00:23:44;;;;;;;18.10;12.88;;;;;;;21.70;100.00;100288.94;5138836;28;20055;-57
2023/08/18 00:26:10;;;;;;;15.70;12.40;;;;;;;21.70;100.00;100297.31;5138411;28;20051;-58
2023/08/18 00:28:36;;;;;;;17.55;13.35;;;;;;;21.68;100.00;100296.16;5138302;28;20047;-60
2023/08/18 00:31:02;;;;;;;18.88;12.45;;;;;;;21.63;100.00;100296.59;5138831;28;20051;-60
2023/08/18 00:33:28;;;;;;;18.08;13.00;;;;;;;21.63;100.00;100294.59;5138226;28;20439;-59
2023/08/18 00:35:54;;;;;;;19.40;13.75;;;;;;;21.59;100.00;100299.41;5138127;28;20051;-58
2023/08/18 00:38:21;;;;;;;18.80;13.43;;;;;;;21.55;100.00;100295.84;5138158;27;20059;-57
2023/08/18 00:40:46;;;;;;;15.98;12.45;;;;;;;21.53;100.00;100289.91;5138109;28;20408;-56
2023/08/18 00:43:12;;;;;;;21.05;12.77;;;;;;;21.50;100.00;100279.56;5138426;28;20051;-54
2023/08/18 00:45:38;;;;;;;16.80;12.40;;;;;;;21.54;100.00;100278.31;5138231;28;20085;-58
2023/08/18 00:48:05;;;;;;;21.98;14.25;;;;;;;21.50;100.00;100282.38;5138408;28;20097;-61
2023/08/18 00:50:31;;;;;;;19.67;13.27;;;;;;;21.49;100.00;100277.97;5138116;28;20055;-59
2023/08/18 00:52:59;;;;;;;21.85;14.18;;;;;;;21.49;100.00;100273.22;5138401;28;20134;-58
2023/08/18 00:55:27;;;;;;;16.83;13.30;;;;;;;21.45;100.00;100271.63;5137811;28;20138;-57
2023/08/18 00:57:55;;;;;;;24.02;12.73;;;;;;;21.51;100.00;100268.00;5138282;28;20146;-61
2023/08/18 01:00:23;;;;;;;17.92;12.10;;;;;;;21.45;100.00;100269.63;5137751;28;20208;-57
2023/08/18 01:02:49;;;;;;;31.23;14.32;;;;;;;21.42;100.00;100270.47;5138022;28;20324;-57
2023/08/18 01:05:15;;;;;;;17.27;11.93;;;;;;;21.45;100.00;100260.47;5137790;28;20051;-61
2023/08/18 01:07:41;;;;;;;19.90;13.45;;;;;;;21.39;100.00;100260.13;5137925;27;20146;-60
2023/08/18 01:10:08;;;;;;;16.50;12.00;;;;;;;21.35;100.00;100260.16;5138032;28;20091;-58
2023/08/18 01:12:42;;;;;;;22.02;13.35;;;;;;;21.34;100.00;100257.75;5137857;28;20079;-58
2023/08/18 01:15:15;;;;;;;23.92;13.60;;;;;;;21.32;100.00;100260.16;5137839;28;20051;-58
2023/08/18 01:17:48;;;;;;;16.35;12.25;;;;;;;21.31;100.00;100250.22;5137554;28;20055;-60
2023/08/18 01:20:14;;;;;;;19.70;13.30;;;;;;;21.28;100.00;100248.25;5137953;28;20388;-60
2023/08/18 01:22:40;;;;;;;21.90;13.70;;;;;;;21.31;100.00;100255.78;5137491;28;20047;-56
2023/08/18 01:25:07;;;;;;;23.30;13.57;;;;;;;21.32;100.00;100246.22;5137927;28;20077;-60
2023/08/18 01:27:33;;;;;;;16.70;14.95;;;;;;;21.24;100.00;100250.28;5137658;28;20061;-59
2023/08/18 01:30:00;;;;;;;17.83;13.52;;;;;;;21.26;100.00;100242.28;5137707;28;20055;-61
2023/08/18 01:32:30;;;;;;;26.33;13.57;;;;;;;21.24;100.00;100247.50;5137655;28;20133;-56
2023/08/18 01:34:59;;;;;;;22.98;14.85;;;;;;;21.19;100.00;100254.28;5137477;28;20141;-61
2023/08/18 01:37:27;;;;;;;22.10;13.18;;;;;;;21.17;100.00;100253.13;5137567;27;20047;-56
2023/08/18 01:39:55;;;;;;;24.17;13.13;;;;;;;21.18;100.00;100251.91;5137446;28;20043;-60
2023/08/18 01:42:21;;;;;;;21.42;14.55;;;;;;;21.10;100.00;100251.97;5137518;28;20061;-60
2023/08/18 01:44:47;;;;;;;24.10;15.05;;;;;;;21.10;100.00;100243.63;5137302;28;20047;-61
2023/08/18 01:47:13;;;;;;;20.25;14.25;;;;;;;21.10;100.00;100254.78;5137590;28;20453;-60
2023/08/18 01:49:39;;;;;;;24.17;14.45;;;;;;;21.09;100.00;100255.16;5140837;27;20086;-60
2023/08/18 01:52:05;;;;;;;22.25;13.93;;;;;;;21.04;100.00;100247.25;5144453;27;20391;-56
2023/08/18 01:54:31;;;;;;;24.45;15.15;;;;;;;21.02;100.00;100244.84;5144212;27;20142;-56
2023/08/18 01:56:58;;;;;;;19.25;15.13;;;;;;;21.04;100.00;100238.88;5144077;27;20133;-58
2023/08/18 01:59:24;;;;;;;18.98;14.98;;;;;;;21.03;100.00;100229.75;5143936;27;20316;-58
2023/08/18 02:01:50;;;;;;;27.60;17.02;;;;;;;21.04;100.00;100236.09;5144114;27;20047;-59
2023/08/18 02:04:16;;;;;;;27.20;19.35;;;;;;;20.97;100.00;100234.16;5144172;27;20047;-58
2023/08/18 02:06:42;;;;;;;29.38;18.15;;;;;;;20.93;100.00;100227.81;5143805;27;20055;-55
2023/08/18 02:09:08;;;;;;;31.35;21.27;;;;;;;20.83;100.00;100225.91;5144117;27;20194;-58
2023/08/18 02:11:33;;;;;;;24.67;19.10;;;;;;;20.86;100.00;100206.38;5143754;27;20325;-58
2023/08/18 02:13:59;;;;;;;26.73;19.90;;;;;;;20.94;100.00;100211.88;5144066;27;20171;-60
2023/08/18 02:16:26;;;;;;;32.38;21.20;;;;;;;20.89;100.00;100210.31;5143592;27;20069;-60
2023/08/18 02:18:52;;;;;;;35.90;21.00;;;;;;;20.93;100.00;100205.53;5144118;27;20138;-58
2023/08/18 02:21:18;;;;;;;32.80;29.45;;;;;;;20.88;100.00;100211.53;5143620;27;20150;-60
2023/08/18 02:23:44;;;;;;;39.08;21.38;;;;;;;20.86;100.00;100203.59;5144059;27;20198;-60
2023/08/18 02:26:11;;;;;;;28.20;19.67;;;;;;;20.88;100.00;100205.94;5143566;27;20077;-60
2023/08/18 02:28:36;;;;;;;33.35;19.27;;;;;;;20.82;100.00;100211.16;5143723;27;20137;-57
2023/08/18 02:31:04;;;;;;;28.38;18.33;;;;;;;20.79;100.00;100206.44;5143579;27;20451;-58
2023/08/18 02:33:32;;;;;;;22.80;16.67;;;;;;;20.85;100.00;100201.97;5143740;27;20134;-61
2023/08/18 02:35:59;;;;;;;28.88;18.65;;;;;;;20.86;100.00;100205.59;5143747;27;20051;-61
2023/08/18 02:38:25;;;;;;;24.08;17.30;;;;;;;20.86;100.00;100211.16;5143416;27;20046;-60
2023/08/18 02:40:52;;;;;;;23.40;16.00;;;;;;;20.85;100.00;100217.91;5143818;27;20504;-60
2023/08/18 02:43:18;;;;;;;30.70;17.83;;;;;;;20.82;100.00;100219.50;5143455;27;20144;-60
2023/08/18 02:45:44;;;;;;;27.10;16.33;;;;;;;20.77;100.00;100208.81;5143756;27;20058;-55
2023/08/18 02:48:11;;;;;;;26.75;17.30;;;;;;;20.80;100.00;100216.38;5143326;27;20047;-57
2023/08/18 02:50:38;;;;;;;22.13;15.18;;;;;;;20.77;100.00;100222.75;5143711;27;20046;-59
2023/08/18 02:53:04;;;;;;;26.42;17.30;;;;;;;20.79;100.00;100222.34;5143527;27;20065;-60
2023/08/18 02:55:30;;;;;;;18.73;15.50;;;;;;;20.71;100.00;100229.97;5143418;27;20395;-54
2023/08/18 02:57:56;;;;;;;27.17;16.40;;;;;;;20.74;100.00;100220.78;5143418;27;20051;-58
2023/08/18 03:00:22;;;;;;;24.58;16.65;;;;;;;20.80;100.00;100218.38;5142423;27;20054;-60
2023/08/18 03:02:49;;;;;;;21.77;15.65;;;;;;;20.75;100.00;100216.00;5140067;28;20142;-60
2023/08/18 03:05:15;;;;;;;25.75;16.13;;;;;;;20.79;100.00;100222.34;5139864;28;20051;-61
2023/08/18 03:07:42;;;;;;;18.52;14.57;;;;;;;20.80;100.00;100221.16;5139962;27;20054;-56
2023/08/18 03:10:08;;;;;;;20.65;18.50;;;;;;;20.76;100.00;100225.94;5139735;28;20075;-57
2023/08/18 03:12:34;;;;;;;25.77;17.30;;;;;;;20.82;100.00;100227.88;5139953;28;20126;-58
2023/08/18 03:15:00;;;;;;;21.85;15.07;;;;;;;20.83;100.00;100228.69;5139364;28;20161;-60
2023/08/18 03:17:26;;;;;;;24.33;15.63;;;;;;;20.87;100.00;100235.81;5139988;28;20191;-58
2023/08/18 03:19:52;;;;;;;22.75;15.18;;;;;;;20.88;100.00;100242.97;5139449;28;20435;-61
2023/08/18 03:22:17;;;;;;;22.35;13.98;;;;;;;20.94;100.00;100251.69;5139659;28;20139;-58
2023/08/18 03:24:44;;;;;;;22.77;14.52;;;;;;;20.94;100.00;100259.28;5139611;28;20126;-56
2023/08/18 03:27:10;;;;;;;16.75;13.60;;;;;;;21.06;100.00;100251.22;5139338;28;20046;-57
2023/08/18 03:29:36;;;;;;;25.00;14.32;;;;;;;21.24;100.00;100270.59;5139618;28;20191;-56
2023/08/18 03:32:02;;;;;;;21.00;14.73;;;;;;;21.37;100.00;100291.22;5139449;28;20047;-59
2023/08/18 03:34:28;;;;;;;20.58;14.70;;;;;;;21.55;100.00;100307.03;5139603;28;20124;-61
2023/08/18 03:36:54;;;;;;;17.05;13.80;;;;;;;21.90;100.00;100321.88;5139195;28;20413;-59
2023/08/18 03:39:20;;;;;;;25.02;14.00;;;;;;;22.33;100.00;100322.22;5139081;27;20047;-60
2023/08/18 03:41:46;;;;;;;23.42;13.25;;;;;;;22.59;100.00;100269.59;5139186;28;20047;-57
2023/08/18 03:44:12;;;;;;;13.77;12.15;;;;;;;22.90;100.00;100189.28;5139488;28;20145;-61
2023/08/18 03:46:38;;;;;;;17.95;12.75;;;;;;;23.21;100.00;100078.09;5139010;28;20409;-57
2023/08/18 03:49:06;;;;;;;22.50;12.93;;;;;;;23.46;100.00;99934.88;5139527;28;20078;-56
2023/08/18 03:51:32;;;;;;;20.48;12.98;;;;;;;23.69;100.00;99836.00;5138909;28;20058;-60
2023/08/18 03:53:57;;;;;;;16.80;12.18;;;;;;;23.96;100.00;99670.50;5139190;28;21083;-57
2023/08/18 03:56:24;;;;;;;17.13;12.57;;;;;;;24.23;100.00;99513.22;5139077;28;20461;-59
2023/08/18 03:58:50;;;;;;;20.42;11.77;;;;;;;24.50;100.00;99395.06;5138867;28;20130;-61
2023/08/18 04:01:16;;;;;;;15.77;11.75;;;;;;;24.65;100.00;99320.41;5139188;28;20051;-61
2023/08/18 04:03:43;;;;;;;19.40;12.55;;;;;;;24.97;100.00;99219.50;5138931;28;20450;-62
2023/08/18 04:06:12;;;;;;;15.02;11.40;;;;;;;25.17;100.00;99138.56;5138948;28;20464;-60
2023/08/18 04:08:40;;;;;;;15.52;10.93;;;;;;;25.42;100.00;99044.09;5138576;27;20428;-60
2023/08/18 04:11:06;;;;;;;14.80;11.40;;;;;;;25.52;100.00;98998.69;5139108;28;20047;-62
2023/08/18 04:13:32;;;;;;;15.57;10.45;;;;;;;25.66;100.00;98983.25;5137909;27;20073;-58
2023/08/18 04:15:59;;;;;;;16.17;13.20;;;;;;;25.95;100.00;98948.97;5138972;28;20051;-59
2023/08/18 04:18:25;;;;;;;14.40;12.85;;;;;;;26.28;100.00;98898.38;5138459;28;20192;-57
2023/08/18 04:20:50;;;;;;;21.15;12.45;;;;;;;26.36;100.00;98858.69;5138709;28;20050;-57
2023/08/18 04:23:16;;;;;;;16.20;11.15;;;;;;;26.40;100.00;98848.06;5138709;28;20188;-58
2023/08/18 04:25:42;;;;;;;16.98;10.63;;;;;;;26.93;100.00;98836.03;5138569;28;20131;-60
2023/08/18 04:28:08;;;;;;;14.60;11.73;;;;;;;27.07;100.00;98832.44;5138714;28;20043;-62
2023/08/18 04:30:35;;;;;;;13.98;11.60;;;;;;;27.38;100.00;98839.59;5138489;28;20055;-60
2023/08/18 04:33:02;;;;;;;12.07;10.80;;;;;;;27.96;100.00;98905.53;5138607;28;20047;-62
2023/08/18 04:35:28;;;;;;;12.20;10.90;;;;;;;28.08;100.00;98929.00;5138257;28;20133;-59
2023/08/18 04:37:54;;;;;;;13.20;11.75;;;;;;;28.41;100.00;98981.50;5138549;27;20419;-61
2023/08/18 04:40:20;;;;;;;12.23;10.25;;;;;;;28.55;100.00;99006.81;5138179;28;20464;-61
2023/08/18 04:42:46;;;;;;;12.80;11.43;;;;;;;28.67;100.00;99047.25;5138395;28;20145;-62
2023/08/18 04:45:11;;;;;;;12.55;10.02;;;;;;;28.88;100.00;99141.13;5138114;28;20051;-62
2023/08/18 04:47:37;;;;;;;12.13;10.82;;;;;;;29.26;100.00;99157.09;5138564;28;20051;-60
2023/08/18 04:50:06;;;;;;;15.27;9.63;;;;;;;29.26;100.00;99145.81;5138038;28;20074;-60
2023/08/18 04:52:31;;;;;;;14.85;10.27;;;;;;;29.73;100.00;99205.19;5137962;28;20082;-61
2023/08/18 04:54:57;;;;;;;11.70;10.50;;;;;;;29.60;100.00;99136.97;5138214;28;20145;-60
2023/08/18 04:57:23;;;;;;;16.83;10.73;;;;;;;30.13;100.00;99260.88;5137971;28;20151;-60
2023/08/18 04:59:49;;;;;;;13.98;9.98;;;;;;;30.25;100.00;99271.06;5137939;28;20047;-59
2023/08/18 05:02:15;;;;;;;17.67;9.25;;;;;;;30.58;100.00;99334.13;5137940;28;20134;-61
2023/08/18 05:04:41;;;;;;;13.02;9.07;;;;;;;30.56;100.00;99336.72;5138061;28;20050;-61
2023/08/18 05:07:08;;;;;;;10.25;9.02;;;;;;;30.91;100.00;99359.97;5137939;28;20104;-63
2023/08/18 05:09:34;;;;;;;10.15;9.15;;;;;;;31.06;100.00;99371.19;5138005;28;20161;-62
2023/08/18 05:12:00;;;;;;;10.55;9.05;;;;;;;31.21;100.00;99395.75;5137692;28;20055;-61
2023/08/18 05:14:26;;;;;;;12.07;9.40;;;;;;;31.21;100.00;99375.94;5137851;28;20112;-59
2023/08/18 05:16:52;;;;;;;13.52;10.13;;;;;;;31.48;100.00;99409.38;5137202;28;20136;-61
2023/08/18 05:19:18;;;;;;;12.32;10.13;;;;;;;31.63;100.00;99414.94;5137865;28;20107;-61
2023/08/18 05:21:44;;;;;;;12.75;9.43;;;;;;;31.66;100.00;99419.59;5137622;28;20070;-62
2023/08/18 05:24:10;;;;;;;13.43;9.93;;;;;;;32.01;100.00;99432.72;5136497;27;20062;-63
2023/08/18 05:26:36;;;;;;;13.80;9.38;;;;;;;30.56;100.00;99350.84;5137431;28;20146;-61
2023/08/18 05:29:02;;;;;;;10.25;9.23;;;;;;;31.56;100.00;99419.00;5137474;28;20420;-62
2023/08/18 05:31:29;;;;;;;12.40;8.90;;;;;;;30.97;100.00;99362.84;5137507;28;20057;-61
2023/08/18 05:33:55;;;;;;;11.38;8.50;;;;;;;31.79;100.00;99422.78;5137263;28;20043;-61
2023/08/18 05:36:21;;;;;;;8.75;7.47;;;;;;;30.82;100.00;99404.63;5137638;28;20404;-60
2023/08/18 05:38:47;;;;;;;9.90;8.18;;;;;;;31.62;100.00;99462.34;5137027;27;20130;-59
2023/08/18 05:41:14;;;;;;;9.75;7.85;;;;;;;31.43;100.00;99463.97;5137458;28;20078;-60
2023/08/18 05:43:40;;;;;;;10.45;7.28;;;;;;;31.92;100.00;99473.38;5137144;28;20043;-62
2023/08/18 05:46:07;;;;;;;9.18;7.03;;;;;;;32.13;100.00;99502.41;5137585;28;20047;-59
2023/08/18 05:48:33;;;;;;;10.57;6.97;;;;;;;32.18;100.00;99489.53;5136900;28;20074;-57
2023/08/18 05:51:00;;;;;;;10.60;7.15;;;;;;;32.76;100.00;99490.88;5137222;28;20051;-62
2023/08/18 05:53:26;;;;;;;9.75;6.53;;;;;;;32.85;100.00;99523.16;5137262;28;20282;-63
2023/08/18 05:55:52;;;;;;;7.88;7.05;;;;;;;33.50;100.00;99548.72;5136880;28;20130;-60
2023/08/18 05:58:19;;;;;;;8.05;7.25;;;;;;;33.67;100.00;99568.63;5137278;28;20047;-61
2023/08/18 06:00:49;;;;;;;13.07;7.53;;;;;;;33.73;100.00;99566.56;5136972;28;20058;-59
2023/08/18 06:03:16;;;;;;;13.85;8.07;;;;;;;34.05;100.00;99566.34;5137184;28;20043;-61
2023/08/18 06:05:43;;;;;;;8.95;7.25;;;;;;;33.76;100.00;99570.44;5136928;28;20051;-59
2023/08/18 06:08:09;;;;;;;12.40;7.55;;;;;;;33.70;100.00;99539.19;5137071;27;20096;-61
2023/08/18 06:10:35;;;;;;;8.15;7.03;;;;;;;33.67;100.00;99563.72;5136618;28;20401;-59
2023/08/18 06:13:01;;;;;;;10.15;7.85;;;;;;;32.71;100.00;99497.31;5136951;28;20135;-59
2023/08/18 06:15:27;;;;;;;10.80;6.65;;;;;;;34.17;100.00;99568.66;5136223;28;20050;-60
2023/08/18 06:17:53;;;;;;;11.13;7.80;;;;;;;34.43;100.00;99573.28;5136609;28;20417;-59
2023/08/18 06:20:19;;;;;;;12.18;6.90;;;;;;;34.59;100.00;99591.63;5136984;28;20143;-59
2023/08/18 06:22:47;;;;;;;16.63;6.88;;;;;;;34.29;100.00;99588.56;5136668;28;20058;-59
2023/08/18 06:25:13;;;;;;;10.48;7.28;;;;;;;34.65;100.00;99578.94;5136840;28;20312;-61
2023/08/18 06:27:39;;;;;;;12.60;6.95;;;;;;;35.16;100.00;99612.19;5136380;28;20050;-62
2023/08/18 06:30:06;;;;;;;11.05;6.97;;;;;;;34.62;100.00;99614.19;5136696;28;20047;-60
2023/08/18 06:32:33;;;;;;;11.93;6.40;;;;;;;35.19;100.00;99614.00;5136576;28;20131;-62
2023/08/18 06:34:59;;;;;;;10.68;6.90;;;;;;;34.50;100.00;99594.75;5137303;27;20053;-61
2023/08/18 06:37:25;;;;;;;10.10;7.03;;;;;;;34.23;100.00;99585.75;5139913;27;20055;-62
2023/08/18 06:39:51;;;;;;;9.38;6.85;;;;;;;35.02;100.00;99605.50;5140433;28;20088;-59
2023/08/18 06:42:17;;;;;;;9.82;6.95;;;;;;;35.07;100.00;99608.34;5139953;28;20133;-59
2023/08/18 06:44:43;;;;;;;10.43;6.60;;;;;;;34.05;100.00;99586.25;5140299;28;20054;-61
2023/08/18 06:47:09;;;;;;;14.38;6.10;;;;;;;35.43;100.00;99605.59;5140028;28;20055;-61
2023/08/18 06:49:35;;;;;;;8.05;6.05;;;;;;;35.22;100.00;99624.34;5140131;28;20103;-61
2023/08/18 06:52:01;;;;;;;8.57;4.97;;;;;;;35.72;100.00;99626.97;5140326;28;20097;-58
2023/08/18 06:54:27;;;;;;;8.55;5.60;;;;;;;36.29;100.00;99635.91;5139997;28;20051;-57
2023/08/18 06:56:53;;;;;;;8.02;5.70;;;;;;;36.23;100.00;99623.75;5139864;28;20050;-52
2023/08/18 06:59:19;;;;;;;7.68;5.32;;;;;;;36.27;100.00;99644.19;5139714;28;20103;-57
2023/08/18 07:01:45;;;;;;;5.25;4.60;;;;;;;35.34;100.00;99638.03;5139988;28;20119;-58
2023/08/18 07:04:12;;;;;;;6.88;4.50;;;;;;;34.59;100.00;99628.66;5139490;28;20051;-58
2023/08/18 07:06:44;;;;;;;5.53;4.95;;;;;;;35.75;100.00;99623.03;5139828;28;20111;-54
2023/08/18 07:09:09;;;;;;;11.07;5.05;;;;;;;36.16;100.00;99632.91;5139340;27;20142;-54
2023/08/18 07:11:36;;;;;;;4.90;4.45;;;;;;;36.24;100.00;99646.03;5139195;28;20055;-52
2023/08/18 07:14:03;;;;;;;6.97;4.68;;;;;;;35.71;100.00;99633.19;5139528;28;20101;-56
2023/08/18 07:16:29;;;;;;;5.90;4.80;;;;;;;34.85;100.00;99626.25;5139491;28;20051;-52
2023/08/18 07:18:55;;;;;;;6.47;4.43;;;;;;;35.98;100.00;99637.91;5139239;28;20404;-55
2023/08/18 07:21:21;;;;;;;6.22;4.47;;;;;;;35.08;100.00;99611.97;5139453;28;20047;-56
2023/08/18 07:23:47;;;;;;;7.57;4.32;;;;;;;35.40;100.00;99626.59;5139388;28;20505;-58
2023/08/18 07:26:13;;;;;;;6.63;4.30;;;;;;;35.10;100.00;99630.09;5139365;28;20055;-55
2023/08/18 07:28:39;;;;;;;7.60;5.15;;;;;;;35.56;100.00;99625.75;5139564;28;20054;-53
2023/08/18 07:31:06;;;;;;;8.65;4.45;;;;;;;35.06;100.00;99628.81;5139202;28;20051;-50
2023/08/18 07:33:32;;;;;;;6.60;4.47;;;;;;;35.24;100.00;99627.44;5139428;28;20440;-54
2023/08/18 07:35:58;;;;;;;7.47;4.43;;;;;;;34.92;100.00;99627.78;5138968;28;20078;-53
2023/08/18 07:38:24;;;;;;;6.43;4.60;;;;;;;34.76;100.00;99612.31;5139449;27;20043;-49
2023/08/18 07:40:53;;;;;;;7.68;4.43;;;;;;;34.99;100.00;99624.41;5138940;28;20053;-53
2023/08/18 07:43:19;;;;;;;5.68;4.25;;;;;;;35.05;100.00;99610.94;5139262;28;20055;-50
2023/08/18 07:45:45;;;;;;;9.88;4.30;;;;;;;35.24;100.00;99613.97;5138813;28;20047;-55
2023/08/18 07:48:12;;;;;;;5.68;4.43;;;;;;;35.78;100.00;99624.06;5138141;27;20051;-58
2023/08/18 07:50:40;;;;;;;8.85;4.43;;;;;;;36.07;100.00;99634.00;5138977;28;20139;-55
2023/08/18 07:53:06;;;;;;;5.45;4.43;;;;;;;36.05;100.00;99633.75;5138957;28;20102;-53
2023/08/18 07:55:32;;;;;;;8.60;4.22;;;;;;;36.35;95.58;99645.16;5138724;28;20467;-50
2023/08/18 07:57:58;;;;;;;7.72;4.75;;;;;;;35.15;100.00;99619.19;5138639;28;20142;-54
2023/08/18 08:00:26;;;;;;;5.07;4.18;;;;;;;35.35;100.00;99621.69;5138956;28;20047;-53
2023/08/18 08:02:52;;;;;;;5.47;4.10;;;;;;;35.57;100.00;99627.28;5138544;28;20431;-56
2023/08/18 08:05:20;;;;;;;5.20;4.22;;;;;;;34.78;100.00;99621.09;5138960;28;20091;-57
2023/08/18 08:07:46;;;;;;;6.10;4.70;;;;;;;34.38;100.00;99611.06;5138435;27;20329;-55
2023/08/18 08:10:12;;;;;;;6.70;4.18;;;;;;;34.65;100.00;99610.25;5138871;28;20061;-58
2023/08/18 08:12:39;;;;;;;5.60;5.10;;;;;;;35.03;100.00;99622.09;5138681;28;20050;-52
2023/08/18 08:15:08;;;;;;;8.68;4.97;;;;;;;35.05;100.00;99599.53;5138348;28;20419;-57
2023/08/18 08:17:34;;;;;;;4.95;4.30;;;;;;;35.47;100.00;99620.34;5138315;28;20074;-59
2023/08/18 08:20:05;;;;;;;5.38;4.53;;;;;;;35.05;100.00;99610.94;5138542;28;20142;-61
2023/08/18 08:22:31;;;;;;;10.45;5.57;;;;;;;34.95;100.00;99588.94;5138682;28;20054;-52
2023/08/18 08:24:57;;;;;;;5.28;4.78;;;;;;;35.04;100.00;99609.41;5138456;28;20101;-53
2023/08/18 08:27:23;;;;;;;6.00;5.05;;;;;;;35.80;100.00;99621.47;5138679;28;20400;-56
2023/08/18 08:29:50;;;;;;;5.40;4.45;;;;;;;36.08;100.00;99631.91;5138337;28;20043;-60
2023/08/18 08:32:16;;;;;;;5.30;4.80;;;;;;;34.31;100.00;99589.59;5138733;28;20054;-61
2023/08/18 08:34:48;;;;;;;6.32;5.32;;;;;;;33.39;100.00;99542.97;5138276;28;20051;-60
2023/08/18 08:37:14;;;;;;;7.22;5.00;;;;;;;32.66;100.00;99526.47;5138350;27;20091;-58
2023/08/18 08:39:40;;;;;;;9.18;5.47;;;;;;;32.20;100.00;99467.13;5138017;28;20133;-50
2023/08/18 08:42:06;;;;;;;7.25;4.80;;;;;;;32.11;100.00;99493.63;5137997;28;20047;-55
2023/08/18 08:44:32;;;;;;;6.13;5.50;;;;;;;32.25;100.00;99487.00;5138297;28;20050;-59
2023/08/18 08:47:00;;;;;;;5.82;5.28;;;;;;;33.65;100.00;99532.19;5137912;28;20480;-58
2023/08/18 08:49:29;;;;;;;7.70;5.95;;;;;;;33.54;100.00;99539.94;5138193;28;20058;-54
2023/08/18 08:51:59;;;;;;;6.20;5.20;;;;;;;33.38;100.00;99558.47;5138035;28;20141;-57
2023/08/18 08:54:29;;;;;;;6.60;5.22;;;;;;;34.46;100.00;99574.31;5138236;28;20142;-55
2023/08/18 08:56:56;;;;;;;7.05;4.78;;;;;;;33.70;100.00;99556.25;5137740;28;20130;-56
2023/08/18 08:59:22;;;;;;;6.65;4.88;;;;;;;32.85;100.00;99540.19;5138065;27;20431;-62
2023/08/18 09:01:48;;;;;;;8.02;5.45;;;;;;;32.91;100.00;99544.63;5137831;28;20051;-59
2023/08/18 09:04:15;;;;;;;5.32;4.82;;;;;;;32.28;100.00;99514.34;5138193;28;20412;-55
2023/08/18 09:06:42;;;;;;;6.97;5.35;;;;;;;31.63;100.00;99424.19;5137923;28;20147;-60
2023/08/18 09:09:08;;;;;;;5.72;5.22;;;;;;;31.65;100.00;99449.19;5137431;27;20047;-60
2023/08/18 09:11:45;;;;;;;5.72;5.07;;;;;;;31.26;100.00;99432.63;5137649;28;20076;-56
2023/08/18 09:14:11;;;;;;;8.75;5.30;;;;;;;31.53;100.00;99470.22;5137587;28;20059;-58
2023/08/18 09:16:37;;;;;;;7.05;5.68;;;;;;;31.75;100.00;99422.19;5137740;28;20047;-55
2023/08/18 09:19:04;;;;;;;7.40;4.90;;;;;;;32.28;100.00;99505.84;5137360;28;20099;-57
2023/08/18 09:21:32;;;;;;;6.82;5.55;;;;;;;32.20;100.00;99484.13;5137822;28;20130;-61
2023/08/18 09:23:58;;;;;;;7.28;5.25;;;;;;;32.12;100.00;99512.19;5137442;28;20059;-55
2023/08/18 09:26:26;;;;;;;5.80;5.22;;;;;;;31.92;100.00;99455.59;5137769;28;20047;-60
2023/08/18 09:28:52;;;;;;;5.57;4.95;;;;;;;31.10;100.00;99436.84;5137243;28;20061;-57
2023/08/18 09:31:19;;;;;;;8.65;4.93;;;;;;;32.00;100.00;99465.19;5137690;28;20047;-54
2023/08/18 09:33:45;;;;;;;9.23;5.70;;;;;;;31.79;100.00;99464.50;5137527;28;20047;-58
2023/08/18 09:36:12;;;;;;;7.60;5.55;;;;;;;31.99;100.00;99492.78;5137352;28;20116;-54
2023/08/18 09:38:39;;;;;;;7.65;5.90;;;;;;;32.78;100.00;99525.19;5137394;27;20142;-59
2023/08/18 09:41:05;;;;;;;6.70;5.30;;;;;;;33.64;100.00;99547.69;5137501;28;20051;-61
2023/08/18 09:43:32;;;;;;;9.25;4.95;;;;;;;33.45;100.00;99555.91;5137356;28;20212;-61
2023/08/18 09:46:03;;;;;;;8.70;5.18;;;;;;;32.71;100.00;99522.84;5137103;28;20047;-56
2023/08/18 09:48:34;;;;;;;6.25;5.60;;;;;;;32.96;100.00;99528.94;5137282;28;20127;-61
2023/08/18 09:51:00;;;;;;;9.35;5.43;;;;;;;32.26;100.00;99482.88;5137070;28;20051;-61
2023/08/18 09:53:30;;;;;;;7.22;5.10;;;;;;;32.23;100.00;99489.56;5137472;28;20047;-55
2023/08/18 09:55:59;;;;;;;7.15;5.35;;;;;;;31.96;100.00;99470.34;5136821;28;20145;-63
2023/08/18 09:58:32;;;;;;;12.50;6.00;;;;;;;31.46;100.00;99426.13;5136801;28;20047;-61
2023/08/18 10:00:58;;;;;;;6.50;5.70;;;;;;;31.06;100.00;99379.69;5136876;28;20062;-53
2023/08/18 10:03:26;;;;;;;7.95;5.47;;;;;;;30.73;100.00;99317.06;5136660;28;20102;-56
2023/08/18 10:05:52;;;;;;;5.90;5.40;;;;;;;31.32;100.00;99405.16;5136964;28;20512;-57
2023/08/18 10:08:19;;;;;;;5.75;5.00;;;;;;;31.63;100.00;99420.59;5136892;27;20043;-57
2023/08/18 10:10:46;;;;;;;8.73;5.38;;;;;;;32.27;100.00;99475.94;5138796;27;20134;-55
2023/08/18 10:13:14;;;;;;;9.45;5.40;;;;;;;31.38;100.00;99428.63;5140604;28;20055;-58
2023/08/18 10:15:41;;;;;;;9.90;5.55;;;;;;;31.36;100.00;99404.94;5140841;28;20043;-63
2023/08/18 10:18:09;;;;;;;6.65;5.85;;;;;;;31.34;100.00;99415.97;5140371;28;20191;-63
2023/08/18 10:20:35;;;;;;;6.75;5.50;;;;;;;30.86;100.00;99417.31;5140698;28;20047;-59
2023/08/18 10:23:02;;;;;;;7.22;5.60;;;;;;;31.02;100.00;99386.81;5140122;28;20105;-63
2023/08/18 10:25:29;;;;;;;9.13;5.40;;;;;;;31.26;100.00;99426.97;5140133;28;20407;-63
2023/08/18 10:27:56;;;;;;;7.07;5.10;;;;;;;32.06;100.00;99458.28;5140385;28;20319;-57
2023/08/18 10:30:27;;;;;;;10.30;6.10;;;;;;;32.18;100.00;99455.50;5140363;28;20134;-60
2023/08/18 10:33:00;;;;;;;7.20;5.35;;;;;;;31.27;100.00;99444.72;5140399;28;20065;-64
2023/08/18 10:35:27;;;;;;;8.15;5.32;;;;;;;30.94;100.00;99392.16;5140195;28;20043;-63
2023/08/18 10:37:54;;;;;;;5.93;5.32;;;;;;;31.04;100.00;99404.09;5140297;27;20202;-60
2023/08/18 10:40:24;;;;;;;5.68;4.85;;;;;;;31.09;100.00;99411.84;5140003;28;20054;-62
2023/08/18 10:42:51;;;;;;;10.93;5.15;;;;;;;31.77;100.00;99413.22;5140387;28;20361;-55
2023/08/18 10:45:26;;;;;;;6.70;5.70;;;;;;;31.65;100.00;99398.94;5139846;28;20062;-64
2023/08/18 10:47:52;;;;;;;6.47;4.90;;;;;;;31.75;100.00;99419.38;5140345;28;20051;-63
2023/08/18 10:50:19;;;;;;;9.65;5.35;;;;;;;30.86;100.00;99389.00;5140098;28;20302;-58
2023/08/18 10:52:45;;;;;;;7.72;5.28;;;;;;;31.15;100.00;99382.31;5140006;28;20047;-60
2023/08/18 10:55:11;;;;;;;7.72;5.53;;;;;;;31.28;100.00;99378.31;5139963;28;20405;-63
2023/08/18 10:57:37;;;;;;;8.55;6.35;;;;;;;31.00;100.00;99383.72;5139745;28;20137;-63
2023/08/18 11:00:05;;;;;;;6.15;5.18;;;;;;;31.16;100.00;99372.56;5139834;28;20051;-62
2023/08/18 11:02:32;;;;;;;6.40;4.82;;;;;;;31.45;100.00;99398.28;5139594;28;20344;-60
2023/08/18 11:04:59;;;;;;;10.93;5.68;;;;;;;31.52;100.00;99350.44;5139904;28;20138;-63
2023/08/18 11:07:27;;;;;;;6.90;5.55;;;;;;;31.30;100.00;99359.53;5139566;27;20055;-61
2023/08/18 11:09:53;;;;;;;8.90;6.63;;;;;;;30.82;100.00;99292.19;5139772;28;20104;-64
2023/08/18 11:12:19;;;;;;;8.98;5.43;;;;;;;30.98;100.00;99370.06;5139475;28;20055;-63